sensor_id;sensor_type;location;lat;lon;timestamp;pressure;altitude;pressure_sealevel;temperature;humidity
62124;BME280;48110;47.532;19.078;2022-10-16T00:02:23;100854.75;;;14.48;88.69
62124;BME280;48110;47.532;19.078;2022-10-16T00:05:31;100858.75;;;14.52;88.11
62124;BME280;48110;47.532;19.078;2022-10-16T00:08:39;100850.19;;;14.57;88.23
62124;BME280;48110;47.532;19.078;2022-10-16T00:11:48;100853.41;;;14.52;87.69
62124;BME280;48110;47.532;19.078;2022-10-16T00:14:55;100851.06;;;14.49;86.90
62124;BME280;48110;47.532;19.078;2022-10-16T00:18:02;100856.12;;;14.44;87.22
62124;BME280;48110;47.532;19.078;2022-10-16T00:21:08;100847.78;;;14.47;86.66
62124;BME280;48110;47.532;19.078;2022-10-16T00:24:19;100860.37;;;14.53;87.17
62124;BME280;48110;47.532;19.078;2022-10-16T00:27:25;100861.00;;;14.41;87.30
62124;BME280;48110;47.532;19.078;2022-10-16T00:30:39;100868.34;;;14.39;87.10
62124;BME280;48110;47.532;19.078;2022-10-16T00:33:45;100869.19;;;14.39;86.30
62124;BME280;48110;47.532;19.078;2022-10-16T00:36:52;100870.78;;;14.48;86.16
62124;BME280;48110;47.532;19.078;2022-10-16T00:39:58;100872.31;;;14.43;86.77
62124;BME280;48110;47.532;19.078;2022-10-16T00:43:07;100871.69;;;14.41;86.33
62124;BME280;48110;47.532;19.078;2022-10-16T00:46:19;100878.72;;;14.33;86.95
62124;BME280;48110;47.532;19.078;2022-10-16T00:49:28;100872.53;;;14.33;86.08
62124;BME280;48110;47.532;19.078;2022-10-16T00:52:37;100878.41;;;14.37;87.23
62124;BME280;48110;47.532;19.078;2022-10-16T00:55:45;100882.41;;;14.32;86.31
62124;BME280;48110;47.532;19.078;2022-10-16T00:58:51;100877.41;;;14.38;86.15
62124;BME280;48110;47.532;19.078;2022-10-16T01:02:00;100886.44;;;14.28;87.37
62124;BME280;48110;47.532;19.078;2022-10-16T01:05:06;100886.50;;;14.20;88.25
62124;BME280;48110;47.532;19.078;2022-10-16T01:08:13;100892.75;;;14.13;88.56
62124;BME280;48110;47.532;19.078;2022-10-16T01:11:29;100898.78;;;14.07;87.78
62124;BME280;48110;47.532;19.078;2022-10-16T01:14:56;100896.94;;;14.07;86.72
62124;BME280;48110;47.532;19.078;2022-10-16T01:18:06;100896.53;;;14.18;86.18
62124;BME280;48110;47.532;19.078;2022-10-16T01:27:32;100907.78;;;13.83;88.47
62124;BME280;48110;47.532;19.078;2022-10-16T01:30:43;100904.19;;;13.68;89.02
62124;BME280;48110;47.532;19.078;2022-10-16T01:33:56;100907.97;;;13.51;89.87
62124;BME280;48110;47.532;19.078;2022-10-16T01:37:15;100907.03;;;13.35;91.53
62124;BME280;48110;47.532;19.078;2022-10-16T01:40:24;100904.72;;;13.24;92.46
62124;BME280;48110;47.532;19.078;2022-10-16T01:43:37;100903.09;;;13.15;92.16
62124;BME280;48110;47.532;19.078;2022-10-16T01:46:45;100911.94;;;12.99;93.24
62124;BME280;48110;47.532;19.078;2022-10-16T01:49:51;100917.47;;;12.82;93.75
62124;BME280;48110;47.532;19.078;2022-10-16T01:53:00;100919.31;;;12.65;94.70
62124;BME280;48110;47.532;19.078;2022-10-16T01:56:08;100934.97;;;12.52;95.82
62124;BME280;48110;47.532;19.078;2022-10-16T01:59:18;100921.50;;;12.37;96.61
62124;BME280;48110;47.532;19.078;2022-10-16T02:02:24;100928.44;;;12.30;97.82
62124;BME280;48110;47.532;19.078;2022-10-16T02:08:40;100930.59;;;12.10;100.00
62124;BME280;48110;47.532;19.078;2022-10-16T02:11:52;100938.91;;;11.99;100.00
62124;BME280;48110;47.532;19.078;2022-10-16T02:15:00;100942.69;;;11.89;100.00
62124;BME280;48110;47.532;19.078;2022-10-16T02:18:09;100943.69;;;11.80;100.00
62124;BME280;48110;47.532;19.078;2022-10-16T02:21:22;100934.97;;;11.69;100.00
62124;BME280;48110;47.532;19.078;2022-10-16T02:24:33;100934.28;;;11.59;100.00
62124;BME280;48110;47.532;19.078;2022-10-16T02:31:02;100930.56;;;11.44;100.00
62124;BME280;48110;47.532;19.078;2022-10-16T02:34:09;100930.53;;;11.36;100.00
62124;BME280;48110;47.532;19.078;2022-10-16T02:37:18;100938.44;;;11.28;100.00
62124;BME280;48110;47.532;19.078;2022-10-16T02:40:26;100931.13;;;11.22;100.00
62124;BME280;48110;47.532;19.078;2022-10-16T02:43:34;100950.19;;;11.17;100.00
62124;BME280;48110;47.532;19.078;2022-10-16T02:46:42;100942.34;;;11.08;100.00
62124;BME280;48110;47.532;19.078;2022-10-16T02:49:51;100937.12;;;10.98;100.00
62124;BME280;48110;47.532;19.078;2022-10-16T02:52:59;100950.88;;;10.94;100.00
62124;BME280;48110;47.532;19.078;2022-10-16T02:56:04;100948.00;;;10.87;100.00
62124;BME280;48110;47.532;19.078;2022-10-16T02:59:10;100948.47;;;10.82;100.00
62124;BME280;48110;47.532;19.078;2022-10-16T03:02:20;100944.75;;;10.75;100.00
62124;BME280;48110;47.532;19.078;2022-10-16T03:05:26;100953.38;;;10.69;100.00
62124;BME280;48110;47.532;19.078;2022-10-16T03:08:34;100952.16;;;10.64;100.00
62124;BME280;48110;47.532;19.078;2022-10-16T03:11:42;100955.94;;;10.61;100.00
62124;BME280;48110;47.532;19.078;2022-10-16T03:14:48;100956.25;;;10.58;100.00
62124;BME280;48110;47.532;19.078;2022-10-16T03:17:56;100965.66;;;10.53;100.00
62124;BME280;48110;47.532;19.078;2022-10-16T03:21:02;100968.78;;;10.48;100.00
62124;BME280;48110;47.532;19.078;2022-10-16T03:24:08;100966.72;;;10.42;100.00
62124;BME280;48110;47.532;19.078;2022-10-16T03:27:16;100967.19;;;10.37;100.00
62124;BME280;48110;47.532;19.078;2022-10-16T03:30:22;100974.62;;;10.34;100.00
62124;BME280;48110;47.532;19.078;2022-10-16T03:33:30;100982.34;;;10.27;100.00
62124;BME280;48110;47.532;19.078;2022-10-16T03:36:39;100988.94;;;10.23;100.00
62124;BME280;48110;47.532;19.078;2022-10-16T03:39:47;100995.66;;;10.18;100.00
62124;BME280;48110;47.532;19.078;2022-10-16T03:42:55;100997.47;;;10.17;100.00
62124;BME280;48110;47.532;19.078;2022-10-16T03:46:03;100995.94;;;10.15;100.00
62124;BME280;48110;47.532;19.078;2022-10-16T03:49:10;100994.84;;;10.08;100.00
62124;BME280;48110;47.532;19.078;2022-10-16T03:52:18;100998.50;;;10.07;100.00
62124;BME280;48110;47.532;19.078;2022-10-16T03:55:23;101000.47;;;10.04;100.00
62124;BME280;48110;47.532;19.078;2022-10-16T03:58:29;100995.75;;;9.98;100.00
62124;BME280;48110;47.532;19.078;2022-10-16T04:01:34;100995.94;;;10.15;100.00
62124;BME280;48110;47.532;19.078;2022-10-16T04:04:41;100996.31;;;10.02;100.00
62124;BME280;48110;47.532;19.078;2022-10-16T04:07:50;101000.66;;;9.93;100.00
62124;BME280;48110;47.532;19.078;2022-10-16T04:10:55;101001.09;;;9.89;100.00
62124;BME280;48110;47.532;19.078;2022-10-16T04:14:03;101000.72;;;9.84;100.00
62124;BME280;48110;47.532;19.078;2022-10-16T04:17:10;101008.28;;;9.79;100.00
62124;BME280;48110;47.532;19.078;2022-10-16T04:20:16;100998.97;;;9.75;100.00
62124;BME280;48110;47.532;19.078;2022-10-16T04:23:24;101005.22;;;9.74;100.00
62124;BME280;48110;47.532;19.078;2022-10-16T04:26:29;100997.44;;;9.72;100.00
62124;BME280;48110;47.532;19.078;2022-10-16T04:29:38;101003.31;;;9.66;100.00
62124;BME280;48110;47.532;19.078;2022-10-16T04:32:51;101006.13;;;9.65;100.00
62124;BME280;48110;47.532;19.078;2022-10-16T04:35:59;101006.56;;;9.60;100.00
62124;BME280;48110;47.532;19.078;2022-10-16T04:39:06;101004.22;;;9.57;100.00
62124;BME280;48110;47.532;19.078;2022-10-16T04:42:12;101017.44;;;9.57;100.00
62124;BME280;48110;47.532;19.078;2022-10-16T04:45:21;101018.56;;;9.54;100.00
62124;BME280;48110;47.532;19.078;2022-10-16T04:48:30;101025.00;;;9.52;100.00
62124;BME280;48110;47.532;19.078;2022-10-16T04:51:41;101030.00;;;9.55;100.00
62124;BME280;48110;47.532;19.078;2022-10-16T04:54:48;101026.94;;;9.50;100.00
62124;BME280;48110;47.532;19.078;2022-10-16T04:57:58;101033.09;;;9.50;100.00
62124;BME280;48110;47.532;19.078;2022-10-16T05:01:08;101032.41;;;9.48;100.00
62124;BME280;48110;47.532;19.078;2022-10-16T05:04:14;101035.88;;;9.49;100.00
62124;BME280;48110;47.532;19.078;2022-10-16T05:07:21;101039.94;;;9.43;100.00
62124;BME280;48110;47.532;19.078;2022-10-16T05:10:34;101042.44;;;9.45;100.00
62124;BME280;48110;47.532;19.078;2022-10-16T05:13:41;101035.62;;;9.42;100.00
62124;BME280;48110;47.532;19.078;2022-10-16T05:16:49;101035.34;;;9.45;100.00
62124;BME280;48110;47.532;19.078;2022-10-16T05:19:55;101042.28;;;9.56;100.00
62124;BME280;48110;47.532;19.078;2022-10-16T05:23:02;101049.94;;;9.49;100.00
62124;BME280;48110;47.532;19.078;2022-10-16T05:26:10;101047.47;;;9.48;100.00
62124;BME280;48110;47.532;19.078;2022-10-16T05:29:17;101048.75;;;9.44;100.00
62124;BME280;48110;47.532;19.078;2022-10-16T05:32:23;101056.50;;;9.45;100.00
62124;BME280;48110;47.532;19.078;2022-10-16T05:35:28;101065.31;;;9.46;100.00
62124;BME280;48110;47.532;19.078;2022-10-16T05:38:36;101065.00;;;9.49;100.00
62124;BME280;48110;47.532;19.078;2022-10-16T05:41:42;101064.72;;;9.52;100.00
62124;BME280;48110;47.532;19.078;2022-10-16T05:44:49;101063.75;;;9.53;100.00
62124;BME280;48110;47.532;19.078;2022-10-16T05:47:56;101070.44;;;9.57;100.00
62124;BME280;48110;47.532;19.078;2022-10-16T05:51:06;101074.31;;;9.63;100.00
62124;BME280;48110;47.532;19.078;2022-10-16T05:54:14;101076.22;;;9.70;100.00
62124;BME280;48110;47.532;19.078;2022-10-16T05:57:21;101065.06;;;9.76;100.00
62124;BME280;48110;47.532;19.078;2022-10-16T06:00:28;101069.94;;;9.81;100.00
62124;BME280;48110;47.532;19.078;2022-10-16T06:03:32;101081.75;;;9.86;100.00
62124;BME280;48110;47.532;19.078;2022-10-16T06:06:41;101082.69;;;9.95;100.00
62124;BME280;48110;47.532;19.078;2022-10-16T06:09:50;101097.41;;;10.07;100.00
62124;BME280;48110;47.532;19.078;2022-10-16T06:12:55;101095.75;;;10.16;100.00
62124;BME280;48110;47.532;19.078;2022-10-16T06:16:02;101106.06;;;10.36;100.00
62124;BME280;48110;47.532;19.078;2022-10-16T06:19:10;101096.56;;;10.61;100.00
62124;BME280;48110;47.532;19.078;2022-10-16T06:22:19;101102.94;;;10.68;100.00
62124;BME280;48110;47.532;19.078;2022-10-16T06:25:26;101103.62;;;10.88;100.00
62124;BME280;48110;47.532;19.078;2022-10-16T06:28:33;101101.87;;;10.97;100.00
62124;BME280;48110;47.532;19.078;2022-10-16T06:31:40;101101.19;;;10.95;100.00
62124;BME280;48110;47.532;19.078;2022-10-16T06:34:48;101115.53;;;11.02;100.00
62124;BME280;48110;47.532;19.078;2022-10-16T06:37:55;101124.53;;;11.26;100.00
62124;BME280;48110;47.532;19.078;2022-10-16T06:41:04;101125.28;;;11.19;100.00
62124;BME280;48110;47.532;19.078;2022-10-16T06:44:10;101126.59;;;11.15;100.00
62124;BME280;48110;47.532;19.078;2022-10-16T06:47:16;101137.59;;;11.20;100.00
62124;BME280;48110;47.532;19.078;2022-10-16T06:50:21;101146.69;;;11.35;100.00
62124;BME280;48110;47.532;19.078;2022-10-16T06:53:26;101146.28;;;11.48;100.00
62124;BME280;48110;47.532;19.078;2022-10-16T06:56:31;101151.03;;;11.62;99.50
62124;BME280;48110;47.532;19.078;2022-10-16T06:59:38;101152.47;;;11.74;100.00
62124;BME280;48110;47.532;19.078;2022-10-16T07:02:50;101143.66;;;11.73;98.22
62124;BME280;48110;47.532;19.078;2022-10-16T07:06:02;101151.03;;;11.80;99.70
62124;BME280;48110;47.532;19.078;2022-10-16T07:09:09;101160.62;;;12.06;96.58
62124;BME280;48110;47.532;19.078;2022-10-16T07:12:15;101160.84;;;12.13;96.44
62124;BME280;48110;47.532;19.078;2022-10-16T07:15:21;101168.16;;;12.11;95.54
62124;BME280;48110;47.532;19.078;2022-10-16T07:18:29;101170.88;;;12.19;92.81
62124;BME280;48110;47.532;19.078;2022-10-16T07:21:39;101176.72;;;12.31;93.73
62124;BME280;48110;47.532;19.078;2022-10-16T07:24:47;101189.75;;;12.42;92.66
62124;BME280;48110;47.532;19.078;2022-10-16T07:27:56;101182.31;;;12.53;89.16
62124;BME280;48110;47.532;19.078;2022-10-16T07:31:04;101187.75;;;12.86;86.63
62124;BME280;48110;47.532;19.078;2022-10-16T07:34:12;101195.84;;;13.34;86.07
62124;BME280;48110;47.532;19.078;2022-10-16T07:37:20;101211.78;;;13.99;81.76
62124;BME280;48110;47.532;19.078;2022-10-16T07:40:27;101208.88;;;14.41;78.34
62124;BME280;48110;47.532;19.078;2022-10-16T07:43:33;101207.88;;;16.24;73.29
62124;BME280;48110;47.532;19.078;2022-10-16T07:46:40;101209.97;;;17.66;63.23
62124;BME280;48110;47.532;19.078;2022-10-16T07:49:48;101216.72;;;18.86;58.35
62124;BME280;48110;47.532;19.078;2022-10-16T07:52:53;101220.97;;;20.27;53.53
62124;BME280;48110;47.532;19.078;2022-10-16T07:56:02;101219.59;;;19.59;53.69
62124;BME280;48110;47.532;19.078;2022-10-16T07:59:08;101214.94;;;20.51;53.40
62124;BME280;48110;47.532;19.078;2022-10-16T08:02:13;101219.00;;;21.49;49.48
62124;BME280;48110;47.532;19.078;2022-10-16T08:05:19;101222.84;;;21.60;47.61
62124;BME280;48110;47.532;19.078;2022-10-16T08:08:24;101228.59;;;22.56;45.85
62124;BME280;48110;47.532;19.078;2022-10-16T08:11:31;101227.28;;;22.65;45.23
62124;BME280;48110;47.532;19.078;2022-10-16T08:14:38;101224.31;;;20.87;50.50
62124;BME280;48110;47.532;19.078;2022-10-16T08:18:03;101238.53;;;22.62;45.47
62124;BME280;48110;47.532;19.078;2022-10-16T08:21:12;101246.34;;;24.01;42.18
62124;BME280;48110;47.532;19.078;2022-10-16T08:24:24;101240.69;;;22.90;44.23
62124;BME280;48110;47.532;19.078;2022-10-16T08:27:33;101242.72;;;21.03;48.64
62124;BME280;48110;47.532;19.078;2022-10-16T08:30:40;101246.00;;;19.29;53.27
62124;BME280;48110;47.532;19.078;2022-10-16T08:33:44;101245.94;;;18.27;57.33
62124;BME280;48110;47.532;19.078;2022-10-16T08:36:53;101242.81;;;16.75;63.79
62124;BME280;48110;47.532;19.078;2022-10-16T08:39:59;101260.72;;;16.45;65.81
62124;BME280;48110;47.532;19.078;2022-10-16T08:43:26;101263.03;;;15.50;68.24
62124;BME280;48110;47.532;19.078;2022-10-16T08:53:02;101245.34;;;15.27;72.03
62124;BME280;48110;47.532;19.078;2022-10-16T08:56:11;101251.91;;;15.16;74.57
62124;BME280;48110;47.532;19.078;2022-10-16T08:59:16;101253.16;;;15.05;73.86
62124;BME280;48110;47.532;19.078;2022-10-16T09:02:35;101258.84;;;15.02;74.15
62124;BME280;48110;47.532;19.078;2022-10-16T09:15:35;101269.62;;;15.17;74.00
62124;BME280;48110;47.532;19.078;2022-10-16T09:22:08;101267.47;;;15.12;74.53
62124;BME280;48110;47.532;19.078;2022-10-16T09:25:17;101255.00;;;15.05;73.46
62124;BME280;48110;47.532;19.078;2022-10-16T09:28:23;101257.91;;;15.18;73.46
62124;BME280;48110;47.532;19.078;2022-10-16T09:31:30;101255.03;;;15.28;73.69
62124;BME280;48110;47.532;19.078;2022-10-16T09:34:39;101254.72;;;15.45;72.86
62124;BME280;48110;47.532;19.078;2022-10-16T09:37:48;101253.03;;;15.52;72.09
62124;BME280;48110;47.532;19.078;2022-10-16T09:40:56;101255.31;;;15.63;72.00
62124;BME280;48110;47.532;19.078;2022-10-16T09:44:06;101261.75;;;15.69;72.05
62124;BME280;48110;47.532;19.078;2022-10-16T09:47:22;101259.09;;;15.69;70.94
62124;BME280;48110;47.532;19.078;2022-10-16T09:50:31;101268.06;;;15.76;70.38
62124;BME280;48110;47.532;19.078;2022-10-16T09:53:39;101265.16;;;15.86;70.50
62124;BME280;48110;47.532;19.078;2022-10-16T09:56:44;101271.63;;;15.91;71.04
62124;BME280;48110;47.532;19.078;2022-10-16T09:59:57;101278.41;;;16.17;69.72
62124;BME280;48110;47.532;19.078;2022-10-16T10:03:02;101277.63;;;16.45;68.79
62124;BME280;48110;47.532;19.078;2022-10-16T10:06:20;101283.75;;;16.69;67.09
62124;BME280;48110;47.532;19.078;2022-10-16T10:09:27;101273.91;;;16.90;66.39
62124;BME280;48110;47.532;19.078;2022-10-16T10:12:34;101279.56;;;16.66;66.51
62124;BME280;48110;47.532;19.078;2022-10-16T10:15:41;101269.22;;;16.92;66.89
62124;BME280;48110;47.532;19.078;2022-10-16T10:18:57;101256.63;;;16.93;67.14
62124;BME280;48110;47.532;19.078;2022-10-16T10:22:13;101249.72;;;16.84;65.98
62124;BME280;48110;47.532;19.078;2022-10-16T10:25:19;101252.47;;;16.90;66.82
62124;BME280;48110;47.532;19.078;2022-10-16T10:31:39;101249.03;;;16.97;67.84
62124;BME280;48110;47.532;19.078;2022-10-16T10:35:03;101245.88;;;17.08;68.25
62124;BME280;48110;47.532;19.078;2022-10-16T10:51:36;101240.84;;;18.04;64.66
62124;BME280;48110;47.532;19.078;2022-10-16T10:54:50;101246.34;;;18.24;63.46
62124;BME280;48110;47.532;19.078;2022-10-16T11:01:34;101245.47;;;22.94;48.58
62124;BME280;48110;47.532;19.078;2022-10-16T11:04:54;101249.00;;;27.80;38.30
62124;BME280;48110;47.532;19.078;2022-10-16T11:14:22;101248.41;;;29.29;31.68
62124;BME280;48110;47.532;19.078;2022-10-16T11:20:59;101232.00;;;33.90;24.78
62124;BME280;48110;47.532;19.078;2022-10-16T11:24:05;101228.31;;;30.76;29.22
62124;BME280;48110;47.532;19.078;2022-10-16T11:27:19;101243.87;;;32.78;26.13
62124;BME280;48110;47.532;19.078;2022-10-16T11:30:29;101226.78;;;28.40;32.26
62124;BME280;48110;47.532;19.078;2022-10-16T11:33:46;101222.34;;;31.18;27.85
62124;BME280;48110;47.532;19.078;2022-10-16T11:37:12;101225.12;;;33.23;25.29
62124;BME280;48110;47.532;19.078;2022-10-16T11:40:22;101222.97;;;34.58;23.27
62124;BME280;48110;47.532;19.078;2022-10-16T11:43:41;101214.09;;;32.43;25.79
62124;BME280;48110;47.532;19.078;2022-10-16T11:46:53;101218.31;;;31.00;27.07
62124;BME280;48110;47.532;19.078;2022-10-16T11:50:36;101208.81;;;29.83;28.82
62124;BME280;48110;47.532;19.078;2022-10-16T11:53:48;101220.91;;;30.76;27.51
62124;BME280;48110;47.532;19.078;2022-10-16T11:56:59;101217.72;;;30.44;27.54
62124;BME280;48110;47.532;19.078;2022-10-16T12:09:27;101202.56;;;27.11;33.87
62124;BME280;48110;47.532;19.078;2022-10-16T12:15:43;101189.22;;;25.68;36.77
62124;BME280;48110;47.532;19.078;2022-10-16T12:19:03;101188.44;;;25.39;38.30
62124;BME280;48110;47.532;19.078;2022-10-16T12:22:17;101193.03;;;24.53;39.45
62124;BME280;48110;47.532;19.078;2022-10-16T12:28:34;101194.28;;;22.57;44.01
62124;BME280;48110;47.532;19.078;2022-10-16T12:31:43;101183.13;;;21.92;46.69
62124;BME280;48110;47.532;19.078;2022-10-16T12:34:59;101190.44;;;21.35;47.71
62124;BME280;48110;47.532;19.078;2022-10-16T12:38:19;101187.34;;;21.63;46.12
62124;BME280;48110;47.532;19.078;2022-10-16T12:41:31;101177.53;;;21.06;48.49
62124;BME280;48110;47.532;19.078;2022-10-16T12:44:37;101180.56;;;20.85;48.93
62124;BME280;48110;47.532;19.078;2022-10-16T12:47:48;101185.16;;;20.77;48.33
62124;BME280;48110;47.532;19.078;2022-10-16T12:50:54;101187.16;;;20.44;49.23
62124;BME280;48110;47.532;19.078;2022-10-16T12:54:03;101189.84;;;20.51;49.83
62124;BME280;48110;47.532;19.078;2022-10-16T13:19:38;101196.50;;;20.28;51.25
62124;BME280;48110;47.532;19.078;2022-10-16T13:26:02;101188.53;;;20.66;50.15
62124;BME280;48110;47.532;19.078;2022-10-16T13:29:13;101197.28;;;20.62;51.16
62124;BME280;48110;47.532;19.078;2022-10-16T13:32:17;101199.41;;;20.47;51.23
62124;BME280;48110;47.532;19.078;2022-10-16T13:35:25;101204.62;;;20.22;52.29
62124;BME280;48110;47.532;19.078;2022-10-16T13:38:35;101201.50;;;20.38;51.83
62124;BME280;48110;47.532;19.078;2022-10-16T13:41:41;101205.44;;;20.42;51.44
62124;BME280;48110;47.532;19.078;2022-10-16T13:44:54;101190.03;;;20.49;50.77
62124;BME280;48110;47.532;19.078;2022-10-16T13:48:03;101192.41;;;20.32;50.74
62124;BME280;48110;47.532;19.078;2022-10-16T13:51:15;101196.34;;;20.17;52.43
62124;BME280;48110;47.532;19.078;2022-10-16T13:54:21;101207.78;;;19.79;52.59
62124;BME280;48110;47.532;19.078;2022-10-16T13:57:27;101204.44;;;19.71;52.85
62124;BME280;48110;47.532;19.078;2022-10-16T14:00:33;101203.44;;;19.65;56.18
62124;BME280;48110;47.532;19.078;2022-10-16T14:03:42;101210.28;;;19.55;56.05
62124;BME280;48110;47.532;19.078;2022-10-16T14:06:49;101201.31;;;19.34;56.32
62124;BME280;48110;47.532;19.078;2022-10-16T14:09:56;101204.81;;;19.41;54.82
62124;BME280;48110;47.532;19.078;2022-10-16T14:13:05;101206.06;;;19.26;52.13
62124;BME280;48110;47.532;19.078;2022-10-16T14:16:17;101203.56;;;19.24;54.79
62124;BME280;48110;47.532;19.078;2022-10-16T14:19:22;101205.84;;;19.21;53.99
62124;BME280;48110;47.532;19.078;2022-10-16T14:25:38;101205.63;;;19.22;52.55
62124;BME280;48110;47.532;19.078;2022-10-16T14:28:42;101205.00;;;19.14;53.76
62124;BME280;48110;47.532;19.078;2022-10-16T14:32:03;101199.19;;;19.10;55.68
62124;BME280;48110;47.532;19.078;2022-10-16T14:38:34;101209.06;;;18.90;55.57
62124;BME280;48110;47.532;19.078;2022-10-16T14:41:41;101209.25;;;18.88;54.12
62124;BME280;48110;47.532;19.078;2022-10-16T14:44:47;101210.03;;;18.76;56.32
62124;BME280;48110;47.532;19.078;2022-10-16T14:47:52;101209.78;;;18.57;56.01
62124;BME280;48110;47.532;19.078;2022-10-16T14:50:57;101204.50;;;18.49;56.81
62124;BME280;48110;47.532;19.078;2022-10-16T14:54:02;101206.44;;;18.55;58.22
62124;BME280;48110;47.532;19.078;2022-10-16T14:57:18;101217.88;;;18.36;58.19
62124;BME280;48110;47.532;19.078;2022-10-16T15:00:24;101209.13;;;18.21;59.53
62124;BME280;48110;47.532;19.078;2022-10-16T15:03:29;101210.16;;;18.20;59.10
62124;BME280;48110;47.532;19.078;2022-10-16T15:06:35;101199.91;;;18.02;59.71
62124;BME280;48110;47.532;19.078;2022-10-16T15:09:40;101205.03;;;17.97;59.52
62124;BME280;48110;47.532;19.078;2022-10-16T15:12:51;101205.19;;;17.89;60.46
62124;BME280;48110;47.532;19.078;2022-10-16T15:15:58;101212.50;;;17.74;61.22
62124;BME280;48110;47.532;19.078;2022-10-16T15:19:07;101213.25;;;17.61;61.18
62124;BME280;48110;47.532;19.078;2022-10-16T15:22:13;101225.53;;;17.56;63.44
62124;BME280;48110;47.532;19.078;2022-10-16T15:28:30;101231.09;;;17.33;62.96
62124;BME280;48110;47.532;19.078;2022-10-16T15:31:35;101232.88;;;17.26;62.47
62124;BME280;48110;47.532;19.078;2022-10-16T15:34:42;101225.53;;;17.13;63.66
62124;BME280;48110;47.532;19.078;2022-10-16T15:37:49;101228.69;;;17.02;64.09
62124;BME280;48110;47.532;19.078;2022-10-16T15:40:57;101222.34;;;16.88;67.25
62124;BME280;48110;47.532;19.078;2022-10-16T15:44:03;101230.88;;;16.77;68.12
62124;BME280;48110;47.532;19.078;2022-10-16T15:47:10;101230.78;;;16.71;69.62
62124;BME280;48110;47.532;19.078;2022-10-16T15:50:18;101238.34;;;16.52;68.04
62124;BME280;48110;47.532;19.078;2022-10-16T15:53:22;101242.53;;;16.40;68.52
62124;BME280;48110;47.532;19.078;2022-10-16T15:56:28;101240.47;;;16.28;68.86
62124;BME280;48110;47.532;19.078;2022-10-16T15:59:34;101245.66;;;16.44;70.34
62124;BME280;48110;47.532;19.078;2022-10-16T16:02:39;101243.41;;;16.18;69.40
62124;BME280;48110;47.532;19.078;2022-10-16T16:05:46;101255.94;;;16.03;69.79
62124;BME280;48110;47.532;19.078;2022-10-16T16:08:52;101265.44;;;15.91;70.26
62124;BME280;48110;47.532;19.078;2022-10-16T16:11:59;101262.34;;;15.79;70.97
62124;BME280;48110;47.532;19.078;2022-10-16T16:15:07;101270.63;;;15.70;71.28
62124;BME280;48110;47.532;19.078;2022-10-16T16:18:13;101282.75;;;15.57;71.90
62124;BME280;48110;47.532;19.078;2022-10-16T16:21:18;101280.47;;;15.46;72.61
62124;BME280;48110;47.532;19.078;2022-10-16T16:24:24;101284.37;;;15.36;73.33
62124;BME280;48110;47.532;19.078;2022-10-16T16:27:27;101294.44;;;15.26;74.20
62124;BME280;48110;47.532;19.078;2022-10-16T16:30:37;101289.53;;;15.14;75.99
62124;BME280;48110;47.532;19.078;2022-10-16T16:33:45;101303.28;;;15.03;77.21
62124;BME280;48110;47.532;19.078;2022-10-16T16:36:53;101300.12;;;14.92;78.51
62124;BME280;48110;47.532;19.078;2022-10-16T16:39:58;101310.03;;;14.83;79.04
62124;BME280;48110;47.532;19.078;2022-10-16T16:43:04;101310.22;;;14.73;80.31
62124;BME280;48110;47.532;19.078;2022-10-16T16:46:11;101312.25;;;14.63;80.88
62124;BME280;48110;47.532;19.078;2022-10-16T16:49:17;101318.47;;;14.56;82.08
62124;BME280;48110;47.532;19.078;2022-10-16T16:52:20;101315.78;;;14.48;82.64
62124;BME280;48110;47.532;19.078;2022-10-16T16:55:27;101322.00;;;14.40;83.77
62124;BME280;48110;47.532;19.078;2022-10-16T16:58:34;101323.97;;;14.30;85.05
62124;BME280;48110;47.532;19.078;2022-10-16T17:01:43;101321.34;;;14.22;86.35
62124;BME280;48110;47.532;19.078;2022-10-16T17:04:54;101332.50;;;14.17;87.31
62124;BME280;48110;47.532;19.078;2022-10-16T17:07:59;101338.66;;;14.10;88.51
62124;BME280;48110;47.532;19.078;2022-10-16T17:11:05;101330.53;;;14.03;89.00
62124;BME280;48110;47.532;19.078;2022-10-16T17:14:10;101348.03;;;13.98;89.16
62124;BME280;48110;47.532;19.078;2022-10-16T17:17:16;101352.37;;;13.99;89.80
62124;BME280;48110;47.532;19.078;2022-10-16T17:20:22;101350.50;;;13.91;89.67
62124;BME280;48110;47.532;19.078;2022-10-16T17:23:28;101361.03;;;13.84;89.81
62124;BME280;48110;47.532;19.078;2022-10-16T17:26:33;101366.03;;;13.79;89.95
62124;BME280;48110;47.532;19.078;2022-10-16T17:29:42;101367.50;;;13.74;90.26
62124;BME280;48110;47.532;19.078;2022-10-16T17:32:48;101369.50;;;13.72;90.38
62124;BME280;48110;47.532;19.078;2022-10-16T17:35:55;101366.31;;;13.68;90.69
62124;BME280;48110;47.532;19.078;2022-10-16T17:39:05;101379.16;;;13.65;90.55
62124;BME280;48110;47.532;19.078;2022-10-16T17:42:10;101384.28;;;13.58;91.62
62124;BME280;48110;47.532;19.078;2022-10-16T17:45:14;101385.94;;;13.51;92.44
62124;BME280;48110;47.532;19.078;2022-10-16T17:48:17;101383.75;;;13.46;93.18
62124;BME280;48110;47.532;19.078;2022-10-16T17:51:27;101396.25;;;13.46;93.50
62124;BME280;48110;47.532;19.078;2022-10-16T17:54:32;101396.06;;;13.39;94.41
62124;BME280;48110;47.532;19.078;2022-10-16T17:57:37;101408.06;;;13.35;94.82
62124;BME280;48110;47.532;19.078;2022-10-16T18:00:44;101402.53;;;13.29;94.97
62124;BME280;48110;47.532;19.078;2022-10-16T18:03:51;101407.50;;;13.24;95.10